Terminal Aerodrome Forecast
Issued by NWS Spokane, WA

Home | Current Version | Previous Version | Text Only | Print | Product List | Glossary On
Versions: 1 2 3 4 5 6 7 8 9 10 11 12 13 14 15 16 17 18 19 20 21 22 23 24
000
FTUS46 KOTX 242320
TAFGEG
TAF
KGEG 242320Z 2500/2524 22013G20KT P6SM VCSH SCT050 BKN070 BKN150
      TEMPO 2500/2502 -RA BKN050
     FM250300 19005KT P6SM SCT080 BKN120
     FM251500 20008KT P6SM VCSH SCT040 BKN060 OVC150
     FM252000 23009KT P6SM -SHRA SCT040 BKN060 OVC150=

USA.gov is the U.S. government's official web portal to all federal, state and local government web resources and services.